createdAt,value
2017-12-03T00:01:09.068Z,62.80
2017-12-03T00:03:36.363Z,48.83
2017-12-03T00:06:03.832Z,53.77
2017-12-03T00:08:31.276Z,59.63
2017-12-03T00:10:58.580Z,64.00
2017-12-03T00:13:25.907Z,61.97
2017-12-03T00:15:53.249Z,57.97
2017-12-03T00:18:20.568Z,59.40
2017-12-03T00:20:47.880Z,64.40
2017-12-03T00:23:15.317Z,61.97
2017-12-03T00:25:42.955Z,66.63
2017-12-03T00:28:10.332Z,70.77
2017-12-03T00:30:37.685Z,67.03
2017-12-03T00:33:05.349Z,81.80
2017-12-03T00:35:32.981Z,66.63
2017-12-03T00:38:00.399Z,76.03
2017-12-03T00:40:27.753Z,72.70
2017-12-03T00:42:55.369Z,64.17
2017-12-03T00:45:22.692Z,65.40
2017-12-03T00:47:50.097Z,56.27
2017-12-03T00:50:17.778Z,62.33
2017-12-03T00:52:45.437Z,56.63
2017-12-03T00:55:13.045Z,53.70
2017-12-03T00:57:40.416Z,55.90
2017-12-03T01:00:07.750Z,60.93
2017-12-03T01:02:35.174Z,66.33
2017-12-03T01:05:02.496Z,56.60
2017-12-03T01:07:30.177Z,62.83
2017-12-03T01:09:57.804Z,61.93
2017-12-03T01:12:25.109Z,59.93
2017-12-03T01:14:52.526Z,63.40
2017-12-03T01:17:19.868Z,59.87
2017-12-03T01:19:47.210Z,62.33
2017-12-03T01:22:14.918Z,66.13
2017-12-03T01:24:42.548Z,67.47
2017-12-03T01:27:09.872Z,70.40
2017-12-03T01:29:37.284Z,66.80
2017-12-03T01:32:04.901Z,73.67
2017-12-03T01:34:32.271Z,67.33
2017-12-03T01:36:59.598Z,60.27
2017-12-03T01:39:27.017Z,56.53
2017-12-03T01:41:54.666Z,65.60
2017-12-03T01:44:22.290Z,64.53
2017-12-03T01:46:49.656Z,69.37
2017-12-03T01:49:16.963Z,62.70
2017-12-03T01:51:44.314Z,69.87
2017-12-03T01:54:11.622Z,64.80
2017-12-03T01:56:38.947Z,62.77
2017-12-03T01:59:06.496Z,66.57
2017-12-03T02:01:34.192Z,69.37
2017-12-03T02:04:01.495Z,72.13
2017-12-03T02:06:28.819Z,62.67
2017-12-03T02:08:56.131Z,63.43
2017-12-03T02:11:23.567Z,62.53
2017-12-03T02:13:51.167Z,68.50
2017-12-03T02:16:18.604Z,74.47
2017-12-03T02:18:46.272Z,63.87
2017-12-03T02:21:13.663Z,82.03
2017-12-03T02:23:41.308Z,74.27
2017-12-03T02:26:08.607Z,69.90
2017-12-03T02:28:35.944Z,65.83
2017-12-03T02:31:03.558Z,65.83
2017-12-03T02:33:30.950Z,63.27
2017-12-03T02:35:58.584Z,70.40
2017-12-03T02:38:25.908Z,74.87
2017-12-03T02:40:53.208Z,73.93
2017-12-03T02:43:20.568Z,61.50
2017-12-03T02:45:48.200Z,62.70
2017-12-03T02:48:15.878Z,70.47
2017-12-03T02:50:43.184Z,65.20
2017-12-03T02:53:10.506Z,70.27
2017-12-03T02:55:38.137Z,66.67
2017-12-03T02:58:06.394Z,73.23
2017-12-03T03:00:34.993Z,71.90
2017-12-03T03:03:02.296Z,82.97
2017-12-03T03:05:29.635Z,71.97
2017-12-03T03:07:57.361Z,83.00
2017-12-03T03:10:24.838Z,67.70
2017-12-03T03:12:52.196Z,74.57
2017-12-03T03:15:19.544Z,73.97
2017-12-03T03:17:47.088Z,84.37
2017-12-03T03:20:14.484Z,98.67
2017-12-03T03:22:42.108Z,93.37
2017-12-03T03:25:09.437Z,90.70
2017-12-03T03:27:37.175Z,108.80
2017-12-03T03:30:04.518Z,92.50
2017-12-03T03:32:32.144Z,164.63
2017-12-03T03:34:59.456Z,170.90
2017-12-03T03:37:26.779Z,144.60
2017-12-03T03:39:54.408Z,114.60
2017-12-03T03:42:21.744Z,101.20
2017-12-03T03:44:49.128Z,127.13
2017-12-03T03:47:16.472Z,121.47
2017-12-03T03:49:43.780Z,111.77
2017-12-03T03:52:11.110Z,99.10
2017-12-03T03:54:38.435Z,112.50
2017-12-03T03:57:05.762Z,90.43
2017-12-03T03:59:33.451Z,105.37
2017-12-03T04:02:00.776Z,83.70
2017-12-03T04:04:28.459Z,86.00
2017-12-03T04:06:55.776Z,93.87
2017-12-03T04:09:23.081Z,92.20
2017-12-03T04:11:50.444Z,89.30
2017-12-03T04:14:18.076Z,88.30
2017-12-03T04:16:45.447Z,86.57
2017-12-03T04:19:12.772Z,92.87
2017-12-03T04:21:40.569Z,101.93
2017-12-03T04:24:07.892Z,80.60
2017-12-03T04:26:35.571Z,90.73
2017-12-03T04:29:03.239Z,84.67
2017-12-03T04:31:30.607Z,77.80
2017-12-03T04:33:57.953Z,85.27
2017-12-03T04:36:25.596Z,78.63
2017-12-03T04:38:53.296Z,93.17
2017-12-03T04:41:20.938Z,102.87
2017-12-03T04:43:48.260Z,89.87
2017-12-03T04:46:15.948Z,98.50
2017-12-03T04:48:43.632Z,88.37
2017-12-03T04:51:11.306Z,97.30
2017-12-03T04:53:38.968Z,95.20
2017-12-03T04:56:06.640Z,111.20
2017-12-03T04:58:34.254Z,104.60
2017-12-03T05:01:01.631Z,103.10
2017-12-03T05:03:29.273Z,101.47
2017-12-03T05:05:56.593Z,98.47
2017-12-03T05:08:24.307Z,102.57
2017-12-03T05:10:51.626Z,99.57
2017-12-03T05:13:19.111Z,101.03
2017-12-03T05:15:46.455Z,81.07
2017-12-03T05:18:13.756Z,92.43
2017-12-03T05:20:41.108Z,91.40
2017-12-03T05:23:08.466Z,85.40
2017-12-03T05:25:35.768Z,78.93
2017-12-03T05:28:03.087Z,67.63
2017-12-03T05:30:30.392Z,81.83
2017-12-03T05:32:58.066Z,64.33
2017-12-03T05:35:25.694Z,68.40
2017-12-03T05:37:53.047Z,67.07
2017-12-03T05:40:20.788Z,73.87
2017-12-03T05:42:48.103Z,67.10
2017-12-03T05:45:15.785Z,69.40
2017-12-03T05:47:43.099Z,75.60
2017-12-03T05:50:10.741Z,61.73
2017-12-03T05:52:39.029Z,74.37
2017-12-03T05:55:06.336Z,67.90
2017-12-03T05:57:33.672Z,72.30
2017-12-03T06:00:01.286Z,63.17
2017-12-03T06:02:28.847Z,76.67
2017-12-03T06:04:56.171Z,72.80
2017-12-03T06:07:23.859Z,65.03
2017-12-03T06:09:51.244Z,72.13
2017-12-03T06:12:18.936Z,76.63
2017-12-03T06:14:46.274Z,68.40
2017-12-03T06:17:13.894Z,80.03
2017-12-03T06:19:41.291Z,78.47
2017-12-03T06:22:08.612Z,67.70
2017-12-03T06:24:35.923Z,71.60
2017-12-03T06:27:03.228Z,79.03
2017-12-03T06:29:30.920Z,79.77
2017-12-03T06:31:58.532Z,81.60
2017-12-03T06:34:25.922Z,78.17
2017-12-03T06:36:53.631Z,76.53
2017-12-03T06:39:20.948Z,86.17
2017-12-03T06:41:48.582Z,87.13
2017-12-03T06:44:15.917Z,81.93
2017-12-03T06:46:43.235Z,83.90
2017-12-03T06:49:10.571Z,88.47
2017-12-03T06:51:38.195Z,82.03
2017-12-03T06:54:05.863Z,79.47
2017-12-03T06:56:33.188Z,76.60
2017-12-03T06:59:00.492Z,82.93
2017-12-03T07:01:28.138Z,84.23
2017-12-03T07:03:55.436Z,82.57
2017-12-03T07:06:22.857Z,88.47
2017-12-03T07:08:50.544Z,77.87
2017-12-03T07:11:17.869Z,78.73
2017-12-03T07:13:45.509Z,78.43
2017-12-03T07:16:13.472Z,77.27
2017-12-03T07:18:41.143Z,77.70
2017-12-03T07:21:08.468Z,86.17
2017-12-03T07:23:36.263Z,87.83
2017-12-03T07:26:03.594Z,75.90
2017-12-03T07:28:31.334Z,73.60
2017-12-03T07:30:58.660Z,74.77
2017-12-03T07:33:26.103Z,74.10
2017-12-03T07:35:53.755Z,83.03
2017-12-03T07:38:21.102Z,77.93
2017-12-03T07:40:48.775Z,71.43
2017-12-03T07:43:16.078Z,71.90
2017-12-03T07:45:43.432Z,73.50
2017-12-03T07:48:10.768Z,69.43
2017-12-03T07:50:38.392Z,72.20
2017-12-03T07:53:05.718Z,74.50
2017-12-03T07:55:33.110Z,65.80
2017-12-03T07:58:00.421Z,60.93
2017-12-03T08:00:27.807Z,66.47
2017-12-03T08:02:55.168Z,66.77
2017-12-03T08:05:22.475Z,59.07
2017-12-03T08:07:49.795Z,65.03
2017-12-03T08:10:17.440Z,67.43
2017-12-03T08:12:44.762Z,57.10
2017-12-03T08:15:12.140Z,55.27
2017-12-03T08:17:39.446Z,63.73
2017-12-03T08:20:06.764Z,47.90
2017-12-03T08:22:34.447Z,57.43
2017-12-03T08:25:01.766Z,58.57
2017-12-03T08:27:29.064Z,55.00
2017-12-03T08:29:56.380Z,53.10
2017-12-03T08:32:23.772Z,57.17
2017-12-03T08:34:51.127Z,54.20
2017-12-03T08:37:18.504Z,57.00
2017-12-03T08:39:46.204Z,54.03
2017-12-03T08:42:13.561Z,54.13
2017-12-03T08:44:41.272Z,60.40
2017-12-03T08:47:08.576Z,48.87
2017-12-03T08:49:35.909Z,49.73
2017-12-03T08:52:03.498Z,45.50
2017-12-03T08:54:31.149Z,54.93
2017-12-03T08:56:58.461Z,49.07
2017-12-03T08:59:25.874Z,47.73
2017-12-03T09:01:53.552Z,45.00
2017-12-03T09:04:21.208Z,47.53
2017-12-03T09:06:48.833Z,43.63
2017-12-03T09:09:16.341Z,41.50
2017-12-03T09:11:43.961Z,42.07
2017-12-03T09:14:11.268Z,39.10
2017-12-03T09:16:38.628Z,43.50
2017-12-03T09:19:06.040Z,39.33
2017-12-03T09:21:33.592Z,41.37
2017-12-03T09:24:01.272Z,43.53
2017-12-03T09:26:28.633Z,41.40
2017-12-03T09:28:56.323Z,28.40
2017-12-03T09:31:23.860Z,40.23
2017-12-03T09:33:51.472Z,42.23
2017-12-03T09:36:19.180Z,44.93
2017-12-03T09:38:46.797Z,35.23
2017-12-03T09:41:14.108Z,37.80
2017-12-03T09:43:41.435Z,34.73
2017-12-03T09:46:09.067Z,41.17
2017-12-03T09:48:36.511Z,37.90
2017-12-03T09:51:03.829Z,37.60
2017-12-03T09:53:31.161Z,35.27
2017-12-03T09:55:58.704Z,36.40
2017-12-03T09:58:26.022Z,48.63
2017-12-03T10:00:53.656Z,45.67
2017-12-03T10:03:20.980Z,38.47
2017-12-03T10:05:48.719Z,37.70
2017-12-03T10:08:16.204Z,37.30
2017-12-03T10:10:43.827Z,32.70
2017-12-03T10:13:11.215Z,42.93
2017-12-03T10:15:38.848Z,37.70
2017-12-03T10:18:06.529Z,34.20
2017-12-03T10:20:33.906Z,40.83
2017-12-03T10:23:01.236Z,35.97
2017-12-03T10:25:28.551Z,30.67
2017-12-03T10:27:56.235Z,42.83
2017-12-03T10:30:23.616Z,35.60
2017-12-03T10:32:51.256Z,31.77
2017-12-03T10:35:18.682Z,32.57
2017-12-03T10:37:51.913Z,38.30
2017-12-03T10:40:19.267Z,45.87
2017-12-03T10:42:46.570Z,51.53
2017-12-03T10:45:13.888Z,34.20
2017-12-03T10:47:41.576Z,37.37
2017-12-03T10:50:09.221Z,35.00
2017-12-03T10:52:37.732Z,37.10
2017-12-03T10:55:05.089Z,32.73
2017-12-03T10:57:32.389Z,27.77
2017-12-03T10:59:59.695Z,31.63
2017-12-03T11:02:27.048Z,32.30
2017-12-03T11:04:54.352Z,32.40
2017-12-03T11:07:21.681Z,34.83
2017-12-03T11:09:49.012Z,37.57
2017-12-03T11:12:16.339Z,40.33
2017-12-03T11:14:43.983Z,37.20
2017-12-03T11:17:11.647Z,32.57
2017-12-03T11:19:39.296Z,32.27
2017-12-03T11:22:06.664Z,32.10
2017-12-03T11:24:34.302Z,30.70
2017-12-03T11:27:01.621Z,33.53
2017-12-03T11:29:28.940Z,31.30
2017-12-03T11:31:56.444Z,28.10
2017-12-03T11:34:23.762Z,30.53
2017-12-03T11:36:51.390Z,25.87
2017-12-03T11:39:18.732Z,28.77
2017-12-03T11:41:46.456Z,25.53
2017-12-03T11:44:13.810Z,30.67
2017-12-03T11:46:41.141Z,30.07
2017-12-03T11:49:08.786Z,31.43
2017-12-03T11:51:36.084Z,28.57
2017-12-03T11:54:03.420Z,34.07
2017-12-03T11:56:31.134Z,29.17
2017-12-03T11:58:58.825Z,31.13
2017-12-03T12:01:26.157Z,31.43
2017-12-03T12:03:53.472Z,34.90
2017-12-03T12:06:20.777Z,26.47
2017-12-03T12:08:48.096Z,29.10
2017-12-03T12:11:15.611Z,26.43
2017-12-03T12:13:43.268Z,28.60
2017-12-03T12:16:11.259Z,29.13
2017-12-03T12:18:38.579Z,24.83
2017-12-03T12:21:05.903Z,28.17
2017-12-03T12:23:33.276Z,30.83
2017-12-03T12:26:00.656Z,26.50
2017-12-03T12:28:28.300Z,26.60
2017-12-03T12:30:55.623Z,24.73
2017-12-03T12:33:23.306Z,29.30
2017-12-03T12:35:50.628Z,27.83
2017-12-03T12:38:18.032Z,25.13
2017-12-03T12:40:45.707Z,23.67
2017-12-03T12:43:13.048Z,32.67
2017-12-03T12:45:40.616Z,24.00
2017-12-03T12:48:08.256Z,25.40
2017-12-03T12:50:35.555Z,18.07
2017-12-03T12:53:02.923Z,27.50
2017-12-03T12:55:30.258Z,25.70
2017-12-03T12:57:57.884Z,25.10
2017-12-03T13:00:25.191Z,22.30
2017-12-03T13:02:52.516Z,20.23
2017-12-03T13:05:19.928Z,23.83
2017-12-03T13:07:47.311Z,21.43
2017-12-03T13:10:14.950Z,21.60
2017-12-03T13:12:42.646Z,26.73
2017-12-03T13:15:10.265Z,21.13
2017-12-03T13:17:37.583Z,17.40
2017-12-03T13:20:04.885Z,26.17
2017-12-03T13:22:32.192Z,23.00
2017-12-03T13:24:59.511Z,33.63
2017-12-03T13:27:26.968Z,22.97
2017-12-03T13:29:54.624Z,25.60
2017-12-03T13:32:22.272Z,29.63
2017-12-03T13:34:50.010Z,27.00
2017-12-03T13:37:17.399Z,25.23
2017-12-03T13:39:44.737Z,25.50
2017-12-03T13:42:12.128Z,25.97
2017-12-03T13:44:39.774Z,27.00
2017-12-03T13:47:07.081Z,25.83
2017-12-03T13:49:34.782Z,27.87
2017-12-03T13:52:02.110Z,20.17
2017-12-03T13:54:29.412Z,29.20
2017-12-03T13:56:56.861Z,26.57
2017-12-03T13:59:24.418Z,24.30
2017-12-03T14:01:52.068Z,29.10
2017-12-03T14:04:19.723Z,25.60
2017-12-03T14:06:47.408Z,28.33
2017-12-03T14:09:15.048Z,27.63
2017-12-03T14:11:42.412Z,26.67
2017-12-03T14:14:10.055Z,26.30
2017-12-03T14:16:37.391Z,25.73
2017-12-03T14:19:04.701Z,22.53
2017-12-03T14:21:32.337Z,24.10
2017-12-03T14:23:59.643Z,26.03
2017-12-03T14:26:26.971Z,27.13
2017-12-03T14:28:54.608Z,28.80
2017-12-03T14:31:21.950Z,28.50
2017-12-03T14:33:49.296Z,24.40
2017-12-03T14:36:16.692Z,33.03
2017-12-03T14:38:44.029Z,25.93
2017-12-03T14:41:11.332Z,22.27
2017-12-03T14:43:38.844Z,29.37
2017-12-03T14:46:06.853Z,28.70
2017-12-03T14:48:34.192Z,33.20
2017-12-03T14:51:01.625Z,29.93
2017-12-03T14:53:28.939Z,31.57
2017-12-03T14:55:56.320Z,23.57
2017-12-03T14:58:23.652Z,35.40
2017-12-03T15:00:51.038Z,34.70
2017-12-03T15:03:18.711Z,30.27
2017-12-03T15:05:46.352Z,36.00
2017-12-03T15:08:13.728Z,31.83
2017-12-03T15:10:41.260Z,34.10
2017-12-03T15:13:08.567Z,37.43
2017-12-03T15:15:35.980Z,36.40
2017-12-03T15:18:03.342Z,32.40
2017-12-03T15:20:30.649Z,34.07
2017-12-03T15:22:58.052Z,36.40
2017-12-03T15:25:25.400Z,29.83
2017-12-03T15:27:52.711Z,32.17
2017-12-03T15:30:20.045Z,37.07
2017-12-03T15:32:47.373Z,36.00
2017-12-03T15:35:14.733Z,27.50
2017-12-03T15:37:42.406Z,36.97
2017-12-03T15:40:10.052Z,35.40
2017-12-03T15:42:37.787Z,31.07
2017-12-03T15:45:05.133Z,37.63
2017-12-03T15:47:32.513Z,41.70
2017-12-03T15:49:59.854Z,34.20
2017-12-03T15:52:27.246Z,38.50
2017-12-03T15:54:54.867Z,33.03
2017-12-03T15:57:22.543Z,35.67
2017-12-03T15:59:49.847Z,38.03
2017-12-03T16:02:17.237Z,34.90
2017-12-03T16:04:44.895Z,29.20
2017-12-03T16:07:12.224Z,30.90
2017-12-03T16:09:39.962Z,28.47
2017-12-03T16:12:07.635Z,31.77
2017-12-03T16:14:34.938Z,34.33
2017-12-03T16:17:02.272Z,37.03
2017-12-03T16:19:29.945Z,29.83
2017-12-03T16:21:57.744Z,36.27
2017-12-03T16:24:25.378Z,35.50
2017-12-03T16:26:52.680Z,32.87
2017-12-03T16:29:20.013Z,35.40
2017-12-03T16:31:47.644Z,37.43
2017-12-03T16:34:15.032Z,32.00
2017-12-03T16:36:42.659Z,38.47
2017-12-03T16:39:09.985Z,37.97
2017-12-03T16:41:37.387Z,35.00
2017-12-03T16:44:05.045Z,34.37
2017-12-03T16:46:32.420Z,35.70
2017-12-03T16:49:00.085Z,36.47
2017-12-03T16:51:27.714Z,33.13
2017-12-03T16:53:55.097Z,34.23
2017-12-03T16:56:22.576Z,33.33
2017-12-03T16:58:49.890Z,37.37
2017-12-03T17:01:17.217Z,40.37
2017-12-03T17:03:44.620Z,36.90
2017-12-03T17:06:12.260Z,35.80
2017-12-03T17:08:39.912Z,41.90
2017-12-03T17:11:07.264Z,37.07
2017-12-03T17:13:34.567Z,33.17
2017-12-03T17:16:01.896Z,38.30
2017-12-03T17:18:29.904Z,36.40
2017-12-03T17:20:57.650Z,36.00
2017-12-03T17:23:25.221Z,35.00
2017-12-03T17:25:52.576Z,38.77
2017-12-03T17:28:19.879Z,36.70
2017-12-03T17:30:47.188Z,37.10
2017-12-03T17:33:14.528Z,41.33
2017-12-03T17:35:42.261Z,39.60
2017-12-03T17:38:09.931Z,39.90
2017-12-03T17:40:37.576Z,42.70
2017-12-03T17:43:04.892Z,42.63
2017-12-03T17:45:32.296Z,47.03
2017-12-03T17:47:59.608Z,39.63
2017-12-03T17:50:27.441Z,42.70
2017-12-03T17:52:55.117Z,43.57
2017-12-03T17:55:22.514Z,44.07
2017-12-03T17:57:49.840Z,43.63
2017-12-03T18:00:17.300Z,44.97
2017-12-03T18:02:45.079Z,45.10
2017-12-03T18:05:12.755Z,40.77
2017-12-03T18:07:40.085Z,43.60
2017-12-03T18:10:07.413Z,39.93
2017-12-03T18:12:34.734Z,38.43
2017-12-03T18:15:02.453Z,42.27
2017-12-03T18:17:29.840Z,41.73
2017-12-03T18:19:57.168Z,34.90
2017-12-03T18:22:24.499Z,38.90
2017-12-03T18:24:51.846Z,36.17
2017-12-03T18:27:19.344Z,34.40
2017-12-03T18:29:47.126Z,38.00
2017-12-03T18:32:14.448Z,36.67
2017-12-03T18:34:41.846Z,35.47
2017-12-03T18:37:09.181Z,35.00
2017-12-03T18:39:36.482Z,37.07
2017-12-03T18:42:03.808Z,31.80
2017-12-03T18:44:31.484Z,34.50
2017-12-03T18:46:58.816Z,32.67
2017-12-03T18:49:26.125Z,34.70
2017-12-03T18:51:53.536Z,37.03
2017-12-03T18:54:21.268Z,33.77
2017-12-03T18:56:48.596Z,33.10
2017-12-03T18:59:16.009Z,39.50
2017-12-03T19:01:43.665Z,37.40
2017-12-03T19:04:11.310Z,37.27
2017-12-03T19:06:38.628Z,34.53
2017-12-03T19:09:05.991Z,34.70
2017-12-03T19:11:33.688Z,39.30
2017-12-03T19:14:01.018Z,37.87
2017-12-03T19:16:28.323Z,40.30
2017-12-03T19:18:55.667Z,42.30
2017-12-03T19:21:23.107Z,42.13
2017-12-03T19:23:50.789Z,39.20
2017-12-03T19:26:18.405Z,42.87
2017-12-03T19:28:46.096Z,43.23
2017-12-03T19:31:13.435Z,42.83
2017-12-03T19:33:40.749Z,38.90
2017-12-03T19:36:08.089Z,41.00
2017-12-03T19:38:35.418Z,43.40
2017-12-03T19:41:03.081Z,39.90
2017-12-03T19:43:30.837Z,41.53
2017-12-03T19:45:58.251Z,45.97
2017-12-03T19:48:25.975Z,43.23
2017-12-03T19:50:53.597Z,50.83
2017-12-03T19:53:20.988Z,46.37
2017-12-03T19:55:48.663Z,39.23
2017-12-03T19:58:16.316Z,45.57
2017-12-03T20:00:43.976Z,51.27
2017-12-03T20:03:11.269Z,52.03
2017-12-03T20:05:38.965Z,51.23
2017-12-03T20:08:06.279Z,50.40
2017-12-03T20:10:34.060Z,50.30
2017-12-03T20:13:01.536Z,57.70
2017-12-03T20:15:29.147Z,59.70
2017-12-03T20:17:56.498Z,52.33
2017-12-03T20:20:23.905Z,60.10
2017-12-03T20:22:51.313Z,59.67
2017-12-03T20:25:18.960Z,49.03
2017-12-03T20:27:46.780Z,50.90
2017-12-03T20:30:14.472Z,58.27
2017-12-03T20:32:42.118Z,61.17
2017-12-03T20:35:09.457Z,49.80
2017-12-03T20:37:37.305Z,46.93
2017-12-03T20:40:04.608Z,60.27
2017-12-03T20:42:32.234Z,56.27
2017-12-03T20:44:59.893Z,61.33
2017-12-03T20:47:27.559Z,53.70
2017-12-03T20:49:54.955Z,55.80
2017-12-03T20:52:22.575Z,55.97
2017-12-03T20:54:50.291Z,62.70
2017-12-03T20:57:18.048Z,66.03
2017-12-03T20:59:45.665Z,60.80
2017-12-03T21:02:13.180Z,59.70
2017-12-03T21:04:40.557Z,60.90
2017-12-03T21:07:08.327Z,55.30
2017-12-03T21:09:36.042Z,59.60
2017-12-03T21:12:03.470Z,60.30
2017-12-03T21:14:30.819Z,64.20
2017-12-03T21:16:58.270Z,57.90
2017-12-03T21:19:25.684Z,69.63
2017-12-03T21:21:53.003Z,64.63
2017-12-03T21:24:20.688Z,57.03
2017-12-03T21:26:48.318Z,58.40
2017-12-03T21:29:15.667Z,66.87
2017-12-03T21:31:43.002Z,62.53
2017-12-03T21:34:10.386Z,69.27
2017-12-03T21:36:37.893Z,67.93
2017-12-03T21:39:05.201Z,61.53
2017-12-03T21:41:32.864Z,60.53
2017-12-03T21:44:00.572Z,61.03
2017-12-03T21:46:28.012Z,68.93
2017-12-03T21:48:55.331Z,70.30
2017-12-03T21:51:22.676Z,70.20
2017-12-03T21:53:50.025Z,64.60
2017-12-03T21:56:17.387Z,69.23
2017-12-03T21:58:44.720Z,77.23
2017-12-03T22:01:12.035Z,72.20
2017-12-03T22:03:39.712Z,81.30
2017-12-03T22:06:07.042Z,88.97
2017-12-03T22:08:34.664Z,70.53
2017-12-03T22:11:01.980Z,81.70
2017-12-03T22:13:29.293Z,75.97
2017-12-03T22:15:56.951Z,74.87
2017-12-03T22:18:24.262Z,77.00
2017-12-03T22:20:51.701Z,74.37
2017-12-03T22:23:19.037Z,78.63
2017-12-03T22:25:46.664Z,85.10
2017-12-03T22:28:14.036Z,73.87
2017-12-03T22:30:41.690Z,57.90
2017-12-03T22:33:09.012Z,73.60
2017-12-03T22:35:36.347Z,53.70
2017-12-03T22:38:04.066Z,75.77
2017-12-03T22:40:31.768Z,65.20
2017-12-03T22:42:59.088Z,64.47
2017-12-03T22:45:26.445Z,67.50
2017-12-03T22:47:53.808Z,66.73
2017-12-03T22:50:21.148Z,65.60
2017-12-03T22:52:48.816Z,62.67
2017-12-03T22:55:16.576Z,65.93
2017-12-03T22:57:44.249Z,61.33
2017-12-03T23:00:11.996Z,71.37
2017-12-03T23:02:39.656Z,60.33
2017-12-03T23:05:07.012Z,59.33
2017-12-03T23:07:34.659Z,55.97
2017-12-03T23:10:02.109Z,61.30
2017-12-03T23:12:29.885Z,60.70
2017-12-03T23:14:57.251Z,58.07
2017-12-03T23:17:24.926Z,59.27
2017-12-03T23:19:52.557Z,61.50
2017-12-03T23:22:19.989Z,53.60
2017-12-03T23:24:47.303Z,62.03
2017-12-03T23:27:14.631Z,58.13
2017-12-03T23:29:41.939Z,43.83
2017-12-03T23:32:09.742Z,40.27
2017-12-03T23:34:37.077Z,53.90
2017-12-03T23:37:04.590Z,46.90
2017-12-03T23:39:32.280Z,48.07
2017-12-03T23:41:59.584Z,55.90
2017-12-03T23:44:27.230Z,54.37
2017-12-03T23:46:55.027Z,47.53
2017-12-03T23:49:22.353Z,51.37
2017-12-03T23:51:49.724Z,49.63
2017-12-03T23:54:17.288Z,50.97
2017-12-03T23:56:44.952Z,57.07
2017-12-03T23:59:12.247Z,62.77
